createdAt,value
2018-01-14T00:00:03.392Z,6.40
2018-01-14T00:00:34.895Z,6.40
2018-01-14T00:01:06.500Z,6.40
2018-01-14T00:01:38.079Z,6.30
2018-01-14T00:02:09.673Z,6.30
2018-01-14T00:02:41.277Z,6.40
2018-01-14T00:03:12.867Z,6.50
2018-01-14T00:03:44.455Z,6.30
2018-01-14T00:04:16.015Z,6.40
2018-01-14T00:04:47.587Z,6.40
2018-01-14T00:05:19.151Z,6.30
2018-01-14T00:05:50.709Z,6.40
2018-01-14T00:06:22.255Z,6.40
2018-01-14T00:06:53.845Z,6.30
2018-01-14T00:07:25.404Z,6.20
2018-01-14T00:07:56.959Z,6.30
2018-01-14T00:08:28.505Z,6.20
2018-01-14T00:09:00.062Z,6.30
2018-01-14T00:09:31.641Z,6.20
2018-01-14T00:10:03.239Z,6.30
2018-01-14T00:10:34.816Z,6.30
2018-01-14T00:11:06.347Z,6.30
2018-01-14T00:11:37.886Z,6.30
2018-01-14T00:12:09.420Z,6.30
2018-01-14T00:12:40.988Z,6.20
2018-01-14T00:13:12.555Z,6.20
2018-01-14T00:13:44.109Z,6.20
2018-01-14T00:14:15.685Z,6.20
2018-01-14T00:14:47.240Z,6.20
2018-01-14T00:15:18.799Z,6.20
2018-01-14T00:15:50.344Z,6.10
2018-01-14T00:16:21.894Z,6.20
2018-01-14T00:16:53.461Z,6.10
2018-01-14T00:17:25.022Z,6.10
2018-01-14T00:17:56.592Z,6.10
2018-01-14T00:18:28.175Z,6.10
2018-01-14T00:18:59.722Z,6.10
2018-01-14T00:19:31.284Z,6.10
2018-01-14T00:20:02.895Z,6.10
2018-01-14T00:20:34.468Z,6.10
2018-01-14T00:21:06.009Z,6.10
2018-01-14T00:21:37.577Z,6.00
2018-01-14T00:22:09.133Z,6.10
2018-01-14T00:22:40.702Z,6.10
2018-01-14T00:23:12.253Z,6.10
2018-01-14T00:23:43.803Z,6.10
2018-01-14T00:24:15.369Z,6.10
2018-01-14T00:24:46.968Z,6.00
2018-01-14T00:25:18.493Z,6.10
2018-01-14T00:25:50.063Z,6.10
2018-01-14T00:26:21.665Z,6.10
2018-01-14T00:26:53.219Z,6.10
2018-01-14T00:27:24.771Z,6.10
2018-01-14T00:27:56.333Z,6.10
2018-01-14T00:28:27.900Z,6.10
2018-01-14T00:28:59.461Z,6.20
2018-01-14T00:29:31.009Z,6.10
2018-01-14T00:30:02.645Z,6.20
2018-01-14T00:30:34.224Z,6.20
2018-01-14T00:31:05.793Z,6.10
2018-01-14T00:31:37.361Z,6.20
2018-01-14T00:32:08.915Z,6.10
2018-01-14T00:32:40.480Z,6.20
2018-01-14T00:33:12.048Z,6.20
2018-01-14T00:33:43.617Z,6.10
2018-01-14T00:34:15.182Z,6.10
2018-01-14T00:34:46.738Z,6.10
2018-01-14T00:35:18.293Z,6.20
2018-01-14T00:35:49.851Z,6.20
2018-01-14T00:36:21.426Z,6.10
2018-01-14T00:36:52.977Z,6.10
2018-01-14T00:37:24.549Z,6.10
2018-01-14T00:37:56.097Z,6.20
2018-01-14T00:38:27.671Z,6.20
2018-01-14T00:38:59.234Z,6.10
2018-01-14T00:39:30.845Z,6.20
2018-01-14T00:40:02.409Z,6.10
2018-01-14T00:40:33.969Z,6.10
2018-01-14T00:41:05.542Z,6.10
2018-01-14T00:41:37.119Z,6.10
2018-01-14T00:42:08.692Z,6.10
2018-01-14T00:42:40.265Z,6.10
2018-01-14T00:43:11.805Z,6.20
2018-01-14T00:43:43.365Z,6.10
2018-01-14T00:44:14.912Z,6.00
2018-01-14T00:44:46.468Z,6.10
2018-01-14T00:45:18.015Z,6.20
2018-01-14T00:45:49.596Z,6.20
2018-01-14T00:46:21.187Z,6.20
2018-01-14T00:46:52.781Z,6.20
2018-01-14T00:47:24.339Z,6.10
2018-01-14T00:47:55.893Z,6.20
2018-01-14T00:48:27.441Z,6.10
2018-01-14T00:48:59.025Z,6.10
2018-01-14T00:49:30.604Z,6.10
2018-01-14T00:50:02.177Z,6.10
2018-01-14T00:50:33.749Z,6.10
2018-01-14T00:51:05.317Z,6.10
2018-01-14T00:51:36.897Z,6.10
2018-01-14T00:52:08.437Z,6.20
2018-01-14T00:52:39.996Z,6.10
2018-01-14T00:53:11.551Z,6.10
2018-01-14T00:53:43.103Z,6.20
2018-01-14T00:54:14.655Z,6.20
2018-01-14T00:54:46.222Z,6.20
2018-01-14T00:55:17.788Z,6.20
2018-01-14T00:55:49.349Z,6.10
2018-01-14T00:56:20.922Z,6.10
2018-01-14T00:56:52.470Z,6.20
2018-01-14T00:57:24.053Z,6.20
2018-01-14T00:57:55.600Z,6.10
2018-01-14T00:58:27.147Z,6.10
2018-01-14T00:58:58.713Z,6.20
2018-01-14T00:59:30.269Z,6.10
2018-01-14T01:00:01.854Z,6.10
2018-01-14T01:00:33.466Z,6.20
2018-01-14T01:01:05.057Z,6.10
2018-01-14T01:01:36.652Z,6.10
2018-01-14T01:02:08.236Z,6.10
2018-01-14T01:02:39.818Z,6.10
2018-01-14T01:03:11.381Z,6.10
2018-01-14T01:03:42.958Z,6.10
2018-01-14T01:04:14.516Z,6.10
2018-01-14T01:04:46.084Z,6.20
2018-01-14T01:05:17.629Z,6.10
2018-01-14T01:05:49.208Z,6.20
2018-01-14T01:06:20.788Z,6.10
2018-01-14T01:06:52.355Z,6.10
2018-01-14T01:07:23.918Z,6.10
2018-01-14T01:07:55.517Z,6.20
2018-01-14T01:08:27.080Z,6.20
2018-01-14T01:08:58.676Z,6.10
2018-01-14T01:09:30.234Z,6.20
2018-01-14T01:10:01.774Z,6.20
2018-01-14T01:10:33.329Z,6.20
2018-01-14T01:11:04.886Z,6.20
2018-01-14T01:11:36.437Z,6.10
2018-01-14T01:12:08.014Z,6.10
2018-01-14T01:12:39.609Z,6.10
2018-01-14T01:13:11.180Z,6.20
2018-01-14T01:13:42.742Z,6.20
2018-01-14T01:14:14.300Z,6.20
2018-01-14T01:14:45.844Z,6.10
2018-01-14T01:15:17.432Z,6.10
2018-01-14T01:15:48.995Z,6.10
2018-01-14T01:16:20.549Z,6.20
2018-01-14T01:16:52.119Z,6.10
2018-01-14T01:17:23.734Z,6.10
2018-01-14T01:17:55.284Z,6.10
2018-01-14T01:18:26.829Z,6.10
2018-01-14T01:18:58.384Z,6.10
2018-01-14T01:19:29.952Z,6.10
2018-01-14T01:20:01.510Z,6.20
2018-01-14T01:20:33.065Z,6.10
2018-01-14T01:21:04.641Z,6.00
2018-01-14T01:21:36.193Z,6.10
2018-01-14T01:22:07.752Z,6.10
2018-01-14T01:22:39.306Z,6.10
2018-01-14T01:23:10.862Z,6.10
2018-01-14T01:23:42.425Z,6.10
2018-01-14T01:24:13.969Z,6.20
2018-01-14T01:24:45.538Z,6.10
2018-01-14T01:25:17.077Z,6.10
2018-01-14T01:25:48.643Z,6.10
2018-01-14T01:26:20.210Z,6.10
2018-01-14T01:26:51.750Z,6.10
2018-01-14T01:27:23.327Z,6.10
2018-01-14T01:27:54.890Z,6.00
2018-01-14T01:28:26.444Z,6.10
2018-01-14T01:28:58.001Z,6.00
2018-01-14T01:29:29.569Z,6.10
2018-01-14T01:30:01.120Z,6.10
2018-01-14T01:30:32.722Z,6.10
2018-01-14T01:31:04.284Z,6.10
2018-01-14T01:31:35.852Z,6.10
2018-01-14T01:32:07.408Z,6.10
2018-01-14T01:32:38.969Z,6.00
2018-01-14T01:33:10.517Z,6.10
2018-01-14T01:33:42.076Z,6.00
2018-01-14T01:34:13.625Z,5.90
2018-01-14T01:34:45.156Z,6.00
2018-01-14T01:35:16.724Z,6.00
2018-01-14T01:35:48.294Z,6.00
2018-01-14T01:36:19.870Z,5.90
2018-01-14T01:36:51.492Z,5.90
2018-01-14T01:37:23.020Z,6.00
2018-01-14T01:37:54.576Z,6.00
2018-01-14T01:38:26.132Z,6.00
2018-01-14T01:38:57.706Z,6.00
2018-01-14T01:39:29.276Z,6.00
2018-01-14T01:40:00.814Z,5.90
2018-01-14T01:40:32.379Z,6.00
2018-01-14T01:41:03.980Z,5.90
2018-01-14T01:41:35.535Z,6.00
2018-01-14T01:42:07.085Z,6.00
2018-01-14T01:42:38.664Z,6.00
2018-01-14T01:43:10.205Z,6.00
2018-01-14T01:43:41.768Z,5.90
2018-01-14T01:44:13.328Z,6.00
2018-01-14T01:44:44.896Z,5.80
2018-01-14T01:45:16.461Z,6.00
2018-01-14T01:45:48.038Z,5.90
2018-01-14T01:46:19.638Z,6.00
2018-01-14T01:46:51.191Z,6.00
2018-01-14T01:47:22.766Z,6.00
2018-01-14T01:47:54.300Z,6.00
2018-01-14T01:48:25.866Z,6.00
2018-01-14T01:48:57.464Z,6.00
2018-01-14T01:49:28.981Z,6.00
2018-01-14T01:50:00.538Z,6.00
2018-01-14T01:50:32.088Z,6.00
2018-01-14T01:51:03.644Z,6.00
2018-01-14T01:51:35.210Z,6.00
2018-01-14T01:52:06.790Z,6.00
2018-01-14T01:52:38.352Z,6.00
2018-01-14T01:53:09.908Z,6.10
2018-01-14T01:53:41.540Z,6.00
2018-01-14T01:54:13.118Z,6.00
2018-01-14T01:54:44.702Z,6.00
2018-01-14T01:55:16.290Z,6.00
2018-01-14T01:55:47.852Z,5.90
2018-01-14T01:56:19.408Z,5.90
2018-01-14T01:56:50.986Z,6.00
2018-01-14T01:57:22.542Z,5.90
2018-01-14T01:57:54.067Z,5.90
2018-01-14T01:58:25.600Z,5.90
2018-01-14T01:58:57.147Z,5.80
2018-01-14T01:59:28.676Z,5.90
2018-01-14T02:00:00.222Z,5.90
2018-01-14T02:00:31.792Z,5.90
2018-01-14T02:01:03.366Z,5.90
2018-01-14T02:01:34.912Z,5.80
2018-01-14T02:02:06.488Z,5.90
2018-01-14T02:02:38.044Z,5.90
2018-01-14T02:03:09.604Z,5.90
2018-01-14T02:03:41.204Z,5.90
2018-01-14T02:04:12.768Z,6.00
2018-01-14T02:04:44.310Z,5.90
2018-01-14T02:05:15.878Z,6.00
2018-01-14T02:05:47.480Z,6.00
2018-01-14T02:06:19.036Z,5.90
2018-01-14T02:06:50.622Z,5.90
2018-01-14T02:07:22.180Z,5.90
2018-01-14T02:07:53.770Z,5.90
2018-01-14T02:08:25.339Z,6.00
2018-01-14T02:08:56.910Z,6.00
2018-01-14T02:09:28.460Z,6.00
2018-01-14T02:10:00.028Z,5.90
2018-01-14T02:10:31.588Z,5.90
2018-01-14T02:11:03.182Z,5.90
2018-01-14T02:11:34.744Z,5.90
2018-01-14T02:12:06.304Z,5.90
2018-01-14T02:12:37.894Z,5.90
2018-01-14T02:13:09.494Z,5.90
2018-01-14T02:13:41.036Z,5.90
2018-01-14T02:14:12.600Z,6.00
2018-01-14T02:14:44.158Z,6.00
2018-01-14T02:15:15.736Z,5.90
2018-01-14T02:15:47.292Z,6.00
2018-01-14T02:16:18.878Z,6.00
2018-01-14T02:16:50.444Z,5.90
2018-01-14T02:17:22.007Z,5.90
2018-01-14T02:17:53.598Z,5.90
2018-01-14T02:18:25.174Z,5.90
2018-01-14T02:18:56.751Z,5.90
2018-01-14T02:19:28.322Z,5.80
2018-01-14T02:19:59.892Z,5.90
2018-01-14T02:20:31.513Z,5.90
2018-01-14T02:21:03.147Z,5.90
2018-01-14T02:21:34.716Z,6.00
2018-01-14T02:22:06.266Z,6.00
2018-01-14T02:22:38.722Z,6.00
2018-01-14T02:23:10.272Z,6.00
2018-01-14T02:23:41.834Z,6.00
2018-01-14T02:24:13.406Z,6.00
2018-01-14T02:24:44.976Z,5.90
2018-01-14T02:25:16.556Z,5.90
2018-01-14T02:25:48.120Z,5.90
2018-01-14T02:26:19.692Z,5.90
2018-01-14T02:26:51.314Z,5.80
2018-01-14T02:27:22.886Z,5.80
2018-01-14T02:27:54.436Z,5.90
2018-01-14T02:28:25.990Z,5.90
2018-01-14T02:28:57.560Z,5.90
2018-01-14T02:29:29.120Z,5.90
2018-01-14T02:30:00.693Z,5.90
2018-01-14T02:30:32.266Z,5.90
2018-01-14T02:31:03.870Z,5.90
2018-01-14T02:31:35.428Z,5.90
2018-01-14T02:32:06.998Z,5.90
2018-01-14T02:32:38.555Z,5.90
2018-01-14T02:33:10.140Z,5.90
2018-01-14T02:33:41.701Z,5.90
2018-01-14T02:34:13.284Z,5.90
2018-01-14T02:34:44.848Z,5.80
2018-01-14T02:35:16.430Z,5.80
2018-01-14T02:35:47.996Z,5.90
2018-01-14T02:36:19.566Z,5.90
2018-01-14T02:36:51.169Z,5.80
2018-01-14T02:37:22.793Z,5.80
2018-01-14T02:37:54.361Z,5.80
2018-01-14T02:38:25.956Z,5.90
2018-01-14T02:38:57.516Z,5.80
2018-01-14T02:39:29.060Z,5.80
2018-01-14T02:40:00.636Z,5.80
2018-01-14T02:40:32.210Z,5.80
2018-01-14T02:41:03.784Z,5.80
2018-01-14T02:41:35.388Z,5.80
2018-01-14T02:42:06.958Z,5.80
2018-01-14T02:42:38.547Z,5.80
2018-01-14T02:43:10.120Z,5.80
2018-01-14T02:43:41.665Z,5.80
2018-01-14T02:44:13.208Z,5.70
2018-01-14T02:44:44.776Z,5.70
2018-01-14T02:45:16.366Z,5.80
2018-01-14T02:45:47.922Z,5.80
2018-01-14T02:46:22.794Z,5.70
2018-01-14T02:46:54.392Z,5.70
2018-01-14T02:47:25.976Z,5.60
2018-01-14T02:47:57.567Z,5.50
2018-01-14T02:48:29.132Z,5.70
2018-01-14T02:49:00.698Z,5.70
2018-01-14T02:49:32.259Z,5.60
2018-01-14T02:50:03.851Z,5.70
2018-01-14T02:50:35.410Z,5.70
2018-01-14T02:51:07.006Z,5.70
2018-01-14T02:51:38.578Z,5.70
2018-01-14T02:52:10.128Z,5.70
2018-01-14T02:52:41.693Z,5.70
2018-01-14T02:53:13.272Z,5.70
2018-01-14T02:53:44.844Z,5.80
2018-01-14T02:54:16.416Z,5.80
2018-01-14T02:54:48.011Z,5.60
2018-01-14T02:55:19.562Z,5.70
2018-01-14T02:55:51.134Z,5.80
2018-01-14T02:56:22.710Z,5.80
2018-01-14T02:56:54.272Z,5.70
2018-01-14T02:57:25.872Z,5.70
2018-01-14T02:57:57.426Z,5.70
2018-01-14T02:58:29.008Z,5.80
2018-01-14T02:59:00.600Z,5.70
2018-01-14T02:59:32.180Z,5.80
2018-01-14T03:00:03.774Z,5.70
2018-01-14T03:00:35.368Z,5.70
2018-01-14T03:01:06.936Z,5.60
2018-01-14T03:01:38.492Z,5.70
2018-01-14T03:02:10.040Z,5.60
2018-01-14T03:02:41.607Z,5.60
2018-01-14T03:03:13.180Z,5.70
2018-01-14T03:03:44.785Z,5.80
2018-01-14T03:04:16.354Z,5.80
2018-01-14T03:04:47.932Z,5.70
2018-01-14T03:05:19.488Z,5.70
2018-01-14T03:05:51.070Z,5.70
2018-01-14T03:06:22.632Z,5.70
2018-01-14T03:06:54.176Z,5.60
2018-01-14T03:07:25.732Z,5.60
2018-01-14T03:07:57.306Z,5.70
2018-01-14T03:08:28.848Z,5.80
2018-01-14T03:09:00.406Z,5.80
2018-01-14T03:09:31.964Z,5.80
2018-01-14T03:10:03.532Z,5.70
2018-01-14T03:10:35.086Z,5.80
2018-01-14T03:11:06.644Z,5.80
2018-01-14T03:11:38.660Z,5.70
2018-01-14T03:12:10.222Z,5.70
2018-01-14T03:12:41.796Z,5.80
2018-01-14T03:13:13.340Z,5.80
2018-01-14T03:13:44.934Z,5.80
2018-01-14T03:14:16.519Z,5.70
2018-01-14T03:14:48.084Z,5.70
2018-01-14T03:15:19.652Z,5.80
2018-01-14T03:15:51.216Z,5.80
2018-01-14T03:16:22.764Z,5.70
2018-01-14T03:16:54.312Z,5.70
2018-01-14T03:17:25.862Z,5.70
2018-01-14T03:17:57.442Z,5.70
2018-01-14T03:18:28.988Z,5.70
2018-01-14T03:19:00.547Z,5.70
2018-01-14T03:19:32.106Z,5.70
2018-01-14T03:20:03.676Z,5.70
2018-01-14T03:20:35.233Z,5.60
2018-01-14T03:21:06.768Z,5.70
2018-01-14T03:21:38.343Z,5.60
2018-01-14T03:22:09.892Z,5.70
2018-01-14T03:22:41.454Z,5.70
2018-01-14T03:23:12.999Z,5.70
2018-01-14T03:23:44.580Z,5.60
2018-01-14T03:24:16.160Z,5.70
2018-01-14T03:24:47.766Z,5.70
2018-01-14T03:25:19.332Z,5.70
2018-01-14T03:25:50.890Z,5.70
2018-01-14T03:26:22.452Z,5.80
2018-01-14T03:26:54.012Z,5.70
2018-01-14T03:27:25.548Z,5.70
2018-01-14T03:27:57.118Z,5.70
2018-01-14T03:28:28.684Z,5.70
2018-01-14T03:29:00.224Z,5.70
2018-01-14T03:29:31.808Z,5.70
2018-01-14T03:30:03.381Z,5.70
2018-01-14T03:30:34.949Z,5.70
2018-01-14T03:31:06.520Z,5.70
2018-01-14T03:31:38.146Z,5.70
2018-01-14T03:32:09.715Z,5.70
2018-01-14T03:32:41.262Z,5.80
2018-01-14T03:33:12.807Z,5.60
2018-01-14T03:33:44.358Z,5.70
2018-01-14T03:34:15.898Z,5.70
2018-01-14T03:34:47.447Z,5.60
2018-01-14T03:35:19.056Z,5.70
2018-01-14T03:35:50.608Z,5.70
2018-01-14T03:36:22.170Z,5.70
2018-01-14T03:36:53.711Z,5.70
2018-01-14T03:37:25.254Z,5.70
2018-01-14T03:37:56.800Z,5.60
2018-01-14T03:38:28.348Z,5.60
2018-01-14T03:38:59.912Z,5.60
2018-01-14T03:39:31.451Z,5.50
2018-01-14T03:40:03.017Z,5.60
2018-01-14T03:40:34.583Z,5.60
2018-01-14T03:41:06.151Z,5.60
2018-01-14T03:41:37.704Z,5.60
2018-01-14T03:42:09.266Z,5.60
2018-01-14T03:42:40.796Z,5.50
2018-01-14T03:43:12.362Z,5.50
2018-01-14T03:43:43.894Z,5.60
2018-01-14T03:44:15.448Z,5.60
2018-01-14T03:44:47.030Z,5.50
2018-01-14T03:45:18.595Z,5.50
2018-01-14T03:45:50.148Z,5.50
2018-01-14T03:46:21.696Z,5.50
2018-01-14T03:46:53.240Z,5.60
2018-01-14T03:47:24.787Z,5.60
2018-01-14T03:47:56.342Z,5.50
2018-01-14T03:48:27.898Z,5.60
2018-01-14T03:48:59.458Z,5.60
2018-01-14T03:49:30.999Z,5.50
2018-01-14T03:50:02.602Z,5.60
2018-01-14T03:50:34.144Z,5.40
2018-01-14T03:51:05.750Z,5.50
2018-01-14T03:51:37.292Z,5.50
2018-01-14T03:52:08.836Z,5.50
2018-01-14T03:52:40.392Z,5.50
2018-01-14T03:53:11.940Z,5.60
2018-01-14T03:53:43.504Z,5.60
2018-01-14T03:54:15.066Z,5.50
2018-01-14T03:54:46.612Z,5.50
2018-01-14T03:55:18.164Z,5.50
2018-01-14T03:55:49.710Z,5.50
2018-01-14T03:56:21.264Z,5.60
2018-01-14T03:56:52.800Z,5.50
2018-01-14T03:57:24.375Z,5.60
2018-01-14T03:57:55.930Z,5.50
2018-01-14T03:58:27.470Z,5.50
2018-01-14T03:58:59.026Z,5.50
2018-01-14T03:59:30.588Z,5.50
2018-01-14T04:00:02.175Z,5.50
2018-01-14T04:00:33.748Z,5.50
2018-01-14T04:01:05.312Z,5.50
2018-01-14T04:01:36.849Z,5.60
2018-01-14T04:02:08.396Z,5.50
2018-01-14T04:02:39.956Z,5.60
2018-01-14T04:03:11.520Z,5.60
2018-01-14T04:03:43.085Z,5.60
2018-01-14T04:04:14.652Z,5.70
2018-01-14T04:04:46.200Z,5.50
2018-01-14T04:05:17.793Z,5.70
2018-01-14T04:05:49.344Z,5.60
2018-01-14T04:06:20.882Z,5.60
2018-01-14T04:06:52.447Z,5.60
2018-01-14T04:07:24.020Z,5.50
2018-01-14T04:07:55.568Z,5.50
2018-01-14T04:08:27.096Z,5.50
2018-01-14T04:08:58.642Z,5.50
2018-01-14T04:09:30.196Z,5.50
2018-01-14T04:10:01.752Z,5.50
2018-01-14T04:10:33.324Z,5.60
2018-01-14T04:11:04.906Z,5.60
2018-01-14T04:11:36.453Z,5.60
2018-01-14T04:12:08.026Z,5.50
2018-01-14T04:12:39.574Z,5.50
2018-01-14T04:13:11.120Z,5.40
2018-01-14T04:13:42.668Z,5.40
2018-01-14T04:14:14.226Z,5.40
2018-01-14T04:14:45.782Z,5.40
2018-01-14T04:15:17.364Z,5.40
2018-01-14T04:15:48.906Z,5.50
2018-01-14T04:16:20.502Z,5.40
2018-01-14T04:16:52.016Z,5.50
2018-01-14T04:17:23.593Z,5.50
2018-01-14T04:17:55.223Z,5.40
2018-01-14T04:18:26.804Z,5.40
2018-01-14T04:18:58.374Z,5.50
2018-01-14T04:19:29.943Z,5.40
2018-01-14T04:20:01.504Z,5.40
2018-01-14T04:20:33.072Z,5.40
2018-01-14T04:21:04.618Z,5.40
2018-01-14T04:21:36.176Z,5.50
2018-01-14T04:22:07.736Z,5.40
2018-01-14T04:22:39.315Z,5.50
2018-01-14T04:23:10.840Z,5.50
2018-01-14T04:23:42.403Z,5.40
2018-01-14T04:24:13.936Z,5.40
2018-01-14T04:24:45.496Z,5.40
2018-01-14T04:25:17.046Z,5.40
2018-01-14T04:25:48.591Z,5.40
2018-01-14T04:26:20.133Z,5.40
2018-01-14T04:26:51.699Z,5.30
2018-01-14T04:27:23.258Z,5.30
2018-01-14T04:27:54.821Z,5.30
2018-01-14T04:28:26.394Z,5.40
2018-01-14T04:28:57.948Z,5.40
2018-01-14T04:29:29.507Z,5.40
2018-01-14T04:30:01.074Z,5.30
2018-01-14T04:30:32.682Z,5.20
2018-01-14T04:31:04.228Z,5.20
2018-01-14T04:31:35.762Z,5.10
2018-01-14T04:32:07.292Z,5.20
2018-01-14T04:32:38.854Z,5.20
2018-01-14T04:33:10.428Z,5.20
2018-01-14T04:33:41.984Z,5.30
2018-01-14T04:34:13.540Z,5.30
2018-01-14T04:34:45.096Z,5.30
2018-01-14T04:35:16.636Z,5.20
2018-01-14T04:35:48.186Z,5.30
2018-01-14T04:36:19.760Z,5.30
2018-01-14T04:36:51.314Z,5.30
2018-01-14T04:37:22.901Z,5.20
2018-01-14T04:37:54.453Z,5.20
2018-01-14T04:38:26.044Z,5.30
2018-01-14T04:38:57.591Z,5.30
2018-01-14T04:39:29.160Z,5.10
2018-01-14T04:40:00.702Z,5.20
2018-01-14T04:40:32.266Z,5.20
2018-01-14T04:41:03.846Z,5.20
2018-01-14T04:41:35.420Z,5.10
2018-01-14T04:42:06.980Z,5.10
2018-01-14T04:42:38.516Z,5.20
2018-01-14T04:43:10.075Z,5.30
2018-01-14T04:43:41.631Z,5.20
2018-01-14T04:44:13.188Z,5.20
2018-01-14T04:44:44.766Z,5.20
2018-01-14T04:45:16.324Z,5.20
2018-01-14T04:45:47.868Z,5.20
2018-01-14T04:46:19.409Z,5.20
2018-01-14T04:46:51.054Z,5.30
2018-01-14T04:47:22.591Z,5.30
2018-01-14T04:47:54.142Z,5.30
2018-01-14T04:48:25.698Z,5.30
2018-01-14T04:48:57.271Z,5.30
2018-01-14T04:49:28.805Z,5.30
2018-01-14T04:50:00.347Z,5.20
2018-01-14T04:50:31.898Z,5.20
2018-01-14T04:51:03.472Z,5.20
2018-01-14T04:51:35.016Z,5.30
2018-01-14T04:52:06.560Z,5.20
2018-01-14T04:52:38.116Z,5.20
2018-01-14T04:53:09.682Z,5.30
2018-01-14T04:53:41.242Z,5.30
2018-01-14T04:54:12.808Z,5.30
2018-01-14T04:54:44.344Z,5.30
2018-01-14T04:55:15.888Z,5.20
2018-01-14T04:55:47.444Z,5.20
2018-01-14T04:56:18.988Z,5.30
2018-01-14T04:56:50.538Z,5.20
2018-01-14T04:57:22.102Z,5.10
2018-01-14T04:57:53.643Z,5.20
2018-01-14T04:58:25.214Z,5.20
2018-01-14T04:58:56.797Z,5.20
2018-01-14T04:59:28.392Z,5.20
2018-01-14T04:59:59.962Z,5.20
2018-01-14T05:00:31.534Z,5.10
2018-01-14T05:01:03.107Z,5.10
2018-01-14T05:01:34.660Z,5.10
2018-01-14T05:02:06.224Z,5.10
2018-01-14T05:02:37.774Z,5.10
2018-01-14T05:03:09.341Z,5.10
2018-01-14T05:03:40.884Z,5.10
2018-01-14T05:04:12.446Z,5.10
2018-01-14T05:04:44.002Z,5.10
2018-01-14T05:05:15.558Z,5.10
2018-01-14T05:05:47.116Z,5.10
2018-01-14T05:06:18.666Z,5.10
2018-01-14T05:06:50.225Z,5.10
2018-01-14T05:07:21.763Z,5.20
2018-01-14T05:07:53.316Z,5.20
2018-01-14T05:08:24.864Z,5.20
2018-01-14T05:08:56.424Z,5.20
2018-01-14T05:09:27.960Z,5.10
2018-01-14T05:09:59.504Z,5.20
2018-01-14T05:10:31.065Z,5.20
2018-01-14T05:11:02.646Z,5.20
2018-01-14T05:11:34.182Z,5.30
2018-01-14T05:12:05.755Z,5.20
2018-01-14T05:12:37.309Z,5.10
2018-01-14T05:13:08.842Z,5.10
2018-01-14T05:13:40.404Z,5.20
2018-01-14T05:14:11.976Z,5.20
2018-01-14T05:14:43.516Z,5.00
2018-01-14T05:15:15.084Z,5.10
2018-01-14T05:15:46.636Z,5.00
2018-01-14T05:16:18.182Z,5.10
2018-01-14T05:16:49.766Z,5.10
2018-01-14T05:17:21.318Z,5.10
2018-01-14T05:17:52.864Z,5.10
2018-01-14T05:18:24.441Z,5.20
2018-01-14T05:18:55.992Z,5.10
2018-01-14T05:19:27.547Z,5.10
2018-01-14T05:19:59.105Z,5.20
2018-01-14T05:20:30.647Z,5.20
2018-01-14T05:21:02.202Z,5.10
2018-01-14T05:21:33.736Z,5.10
2018-01-14T05:22:05.287Z,5.20
2018-01-14T05:22:36.860Z,5.10
2018-01-14T05:23:08.396Z,5.10
2018-01-14T05:23:39.954Z,5.20
2018-01-14T05:24:11.520Z,5.10
2018-01-14T05:24:43.068Z,5.20
2018-01-14T05:25:14.657Z,5.20
2018-01-14T05:25:46.220Z,5.10
2018-01-14T05:26:17.787Z,5.10
2018-01-14T05:26:49.324Z,5.00
2018-01-14T05:27:20.882Z,5.10
2018-01-14T05:27:52.438Z,5.00
2018-01-14T05:28:23.984Z,5.10
2018-01-14T05:28:55.508Z,5.10
2018-01-14T05:29:27.040Z,5.20
2018-01-14T05:29:58.592Z,5.20
2018-01-14T05:30:30.128Z,5.10
2018-01-14T05:31:01.700Z,5.10
2018-01-14T05:31:33.347Z,5.00
2018-01-14T05:32:04.911Z,5.10
2018-01-14T05:32:36.466Z,5.10
2018-01-14T05:33:08.021Z,5.10
2018-01-14T05:33:39.570Z,5.10
2018-01-14T05:34:11.124Z,5.10
2018-01-14T05:34:42.681Z,5.10
2018-01-14T05:35:14.224Z,5.10
2018-01-14T05:35:45.774Z,5.10
2018-01-14T05:36:17.369Z,5.10
2018-01-14T05:36:48.926Z,5.00
2018-01-14T05:37:20.483Z,5.00
2018-01-14T05:37:52.046Z,5.10
2018-01-14T05:38:23.588Z,5.00
2018-01-14T05:38:55.131Z,5.10
2018-01-14T05:39:26.708Z,5.10
2018-01-14T05:39:58.302Z,5.10
2018-01-14T05:40:29.843Z,5.10
2018-01-14T05:41:01.384Z,5.10
2018-01-14T05:41:32.963Z,5.10
2018-01-14T05:42:04.511Z,5.00
2018-01-14T05:42:36.072Z,5.00
2018-01-14T05:43:07.632Z,5.10
2018-01-14T05:43:39.194Z,5.00
2018-01-14T05:44:10.736Z,5.00
2018-01-14T05:44:42.288Z,5.00
2018-01-14T05:45:13.836Z,5.00
2018-01-14T05:45:45.386Z,5.00
2018-01-14T05:46:16.950Z,5.10
2018-01-14T05:46:48.546Z,5.10
2018-01-14T05:47:20.148Z,5.00
2018-01-14T05:47:51.690Z,5.10
2018-01-14T05:48:23.268Z,5.00
2018-01-14T05:48:54.830Z,5.10
2018-01-14T05:49:26.367Z,5.10
2018-01-14T05:49:57.924Z,5.10
2018-01-14T05:50:29.460Z,5.10
2018-01-14T05:51:00.996Z,5.10
2018-01-14T05:51:32.554Z,5.10
2018-01-14T05:52:04.115Z,5.20
2018-01-14T05:52:35.680Z,5.10
2018-01-14T05:53:07.219Z,5.10
2018-01-14T05:53:38.778Z,5.10
2018-01-14T05:54:10.339Z,5.10
2018-01-14T05:54:41.897Z,5.00
2018-01-14T05:55:13.463Z,5.10
2018-01-14T05:55:45.018Z,5.10
2018-01-14T05:56:16.556Z,5.10
2018-01-14T05:56:48.126Z,5.10
2018-01-14T05:57:19.680Z,5.10
2018-01-14T05:57:51.199Z,5.10
2018-01-14T05:58:22.754Z,5.10
2018-01-14T05:58:54.300Z,5.10
2018-01-14T05:59:25.853Z,5.10
2018-01-14T05:59:57.390Z,5.10
2018-01-14T06:00:28.956Z,5.00
2018-01-14T06:01:00.528Z,5.00
2018-01-14T06:01:32.089Z,5.00
2018-01-14T06:02:03.639Z,5.00
2018-01-14T06:02:35.181Z,4.90
2018-01-14T06:03:06.727Z,5.00
2018-01-14T06:03:38.276Z,5.00
2018-01-14T06:04:09.841Z,5.00
2018-01-14T06:04:41.420Z,5.10
2018-01-14T06:05:13.002Z,5.10
2018-01-14T06:05:44.556Z,5.10
2018-01-14T06:06:16.112Z,5.10
2018-01-14T06:06:47.651Z,5.20
2018-01-14T06:07:19.240Z,5.10
2018-01-14T06:07:50.824Z,5.10
2018-01-14T06:08:22.425Z,5.00
2018-01-14T06:08:53.984Z,5.10
2018-01-14T06:09:25.554Z,5.10
2018-01-14T06:09:57.112Z,5.00
2018-01-14T06:10:28.676Z,5.10
2018-01-14T06:11:00.250Z,5.00
2018-01-14T06:11:31.827Z,5.00
2018-01-14T06:12:03.404Z,5.00
2018-01-14T06:12:34.966Z,5.10
2018-01-14T06:13:06.567Z,5.10
2018-01-14T06:13:38.124Z,5.00
2018-01-14T06:14:09.686Z,5.00
2018-01-14T06:14:41.236Z,5.00
2018-01-14T06:15:12.792Z,5.00
2018-01-14T06:15:44.420Z,5.00
2018-01-14T06:16:15.970Z,5.00
2018-01-14T06:16:47.536Z,5.10
2018-01-14T06:17:19.100Z,5.10
2018-01-14T06:17:50.679Z,5.10
2018-01-14T06:18:22.251Z,5.10
2018-01-14T06:18:53.802Z,5.10
2018-01-14T06:19:25.362Z,5.10
2018-01-14T06:19:56.920Z,5.00
2018-01-14T06:20:28.482Z,5.00
2018-01-14T06:21:00.056Z,5.00
2018-01-14T06:21:31.621Z,5.00
2018-01-14T06:22:03.183Z,5.10
2018-01-14T06:22:34.756Z,4.90
2018-01-14T06:23:06.320Z,5.00
2018-01-14T06:23:37.887Z,5.10
2018-01-14T06:24:09.440Z,5.00
2018-01-14T06:24:41.010Z,5.00
2018-01-14T06:25:12.592Z,5.00
2018-01-14T06:25:44.159Z,5.00
2018-01-14T06:26:15.724Z,5.00
2018-01-14T06:26:47.283Z,5.10
2018-01-14T06:27:18.862Z,5.00
2018-01-14T06:27:50.509Z,5.00
2018-01-14T06:28:22.098Z,5.00
2018-01-14T06:28:53.672Z,5.00
2018-01-14T06:29:25.234Z,5.00
2018-01-14T06:29:56.890Z,5.00
2018-01-14T06:30:28.490Z,5.00
2018-01-14T06:31:00.056Z,5.10
2018-01-14T06:31:31.637Z,5.00
2018-01-14T06:32:03.196Z,5.00
2018-01-14T06:32:34.752Z,5.00
2018-01-14T06:33:06.337Z,5.00
2018-01-14T06:33:37.906Z,5.00
2018-01-14T06:34:09.472Z,5.00
2018-01-14T06:34:41.034Z,4.90
2018-01-14T06:35:12.578Z,5.00
2018-01-14T06:35:44.142Z,5.00
2018-01-14T06:36:15.724Z,4.90
2018-01-14T06:36:47.289Z,5.00
2018-01-14T06:37:18.850Z,5.00
2018-01-14T06:37:50.401Z,5.00
2018-01-14T06:38:21.980Z,4.90
2018-01-14T06:38:53.524Z,4.90
2018-01-14T06:39:25.100Z,5.00
2018-01-14T06:39:56.665Z,5.00
2018-01-14T06:40:28.232Z,4.90
2018-01-14T06:40:59.800Z,4.90
2018-01-14T06:41:31.367Z,5.00
2018-01-14T06:42:02.948Z,4.90
2018-01-14T06:42:34.493Z,4.90
2018-01-14T06:43:06.063Z,5.00
2018-01-14T06:43:37.612Z,5.00
2018-01-14T06:44:09.160Z,5.00
2018-01-14T06:44:40.724Z,5.00
2018-01-14T06:45:12.291Z,5.00
2018-01-14T06:45:43.858Z,5.00
2018-01-14T06:46:15.424Z,5.10
2018-01-14T06:46:46.992Z,5.00
2018-01-14T06:47:18.550Z,5.00
2018-01-14T06:47:50.110Z,5.10
2018-01-14T06:48:21.657Z,5.00
2018-01-14T06:48:53.210Z,4.90
2018-01-14T06:49:24.765Z,4.90
2018-01-14T06:49:56.357Z,5.00
2018-01-14T06:50:27.921Z,4.90
2018-01-14T06:50:59.484Z,4.90
2018-01-14T06:51:31.044Z,4.90
2018-01-14T06:52:02.636Z,4.90
2018-01-14T06:52:34.196Z,4.90
2018-01-14T06:53:05.746Z,5.00
2018-01-14T06:53:37.294Z,4.90
2018-01-14T06:54:08.868Z,4.90
2018-01-14T06:54:40.469Z,4.90
2018-01-14T06:55:12.006Z,4.90
2018-01-14T06:55:43.552Z,4.90
2018-01-14T06:56:15.106Z,4.90
2018-01-14T06:56:46.693Z,4.90
2018-01-14T06:57:18.262Z,4.90
2018-01-14T06:57:50.180Z,4.90
2018-01-14T06:58:21.734Z,4.80
2018-01-14T06:58:53.308Z,4.90
2018-01-14T06:59:24.863Z,4.90
2018-01-14T06:59:56.432Z,4.90